^^
Saratoga-Weather Station Historical Data
Daily Summary for October 19, 2020 Units:  Both    English   Metric
Daily Weekly Monthly Yearly Custom
  High: Low: Average:
Temperature: 56.8 °F /  13.8 °C 42.3 °F /  5.7 °C 48 °F /  8.9 °C
Dew Point: 48.4 °F /  9.1 °C 39.7 °F /  4.3 °C 43.7 °F /  6.5 °C
Humidity: 96% 60% 86%
Wind Speed: 4mph /  6.4km/h - 0.4mph /  0.6km/h
Wind Gust: 7mph /  11.3km/h - -
Wind- - ESE
Pressure: 30.2 in /  1023.4 hPa 30 in /  1015.9 hPa -
Precipitation: 0 in /  0.0 mm    
Historical Graphs
 
 
Tabular Data for October 19, 2020
Time Temperature Dew Point Pressure Wind Wind Speed Wind Gust Humidity Rainfall Rate (Hourly) solar
00:04 46.4 °F /  8 °C 44.2 °F /  6.8 °C 30.2in /  1023.0hPa West 0.9mph /  1.4km/h 1mph /  1.6km/h 92% 0in /  0.0mm 0 W/m2
00:09 46.4 °F /  8 °C 44.4 °F /  6.9 °C 30.2in /  1023.4hPa Calm     93% 0in /  0.0mm 0 W/m2
00:14 46.2 °F /  7.9 °C 44.2 °F /  6.8 °C 30.2in /  1023.4hPa Calm     93% 0in /  0.0mm 0 W/m2
00:19 46.2 °F /  7.9 °C 44.2 °F /  6.8 °C 30.2in /  1023.0hPa Calm     93% 0in /  0.0mm 0 W/m2
00:24 46.4 °F /  8 °C 44.4 °F /  6.9 °C 30.2in /  1023.0hPa Calm     93% 0in /  0.0mm 0 W/m2
00:29 46.4 °F /  8 °C 44.4 °F /  6.9 °C 30.2in /  1023.0hPa WNW 0.9mph /  1.4km/h 1mph /  1.6km/h 93% 0in /  0.0mm 0 W/m2
00:34 46.6 °F /  8.1 °C 44.6 °F /  7 °C 30.2in /  1023.0hPa Calm     93% 0in /  0.0mm 0 W/m2
00:39 46.6 °F /  8.1 °C 44.6 °F /  7 °C 30.2in /  1023.0hPa Calm     93% 0in /  0.0mm 0 W/m2
00:44 46.6 °F /  8.1 °C 44.6 °F /  7 °C 30.2in /  1023.0hPa Calm     93% 0in /  0.0mm 0 W/m2
00:49 46.6 °F /  8.1 °C 44.6 °F /  7 °C 30.2in /  1023.0hPa Calm     93% 0in /  0.0mm 0 W/m2
00:54 46.6 °F /  8.1 °C 44.6 °F /  7 °C 30.2in /  1023.0hPa Calm   1mph /  1.6km/h 93% 0in /  0.0mm 0 W/m2
00:59 46.6 °F /  8.1 °C 44.6 °F /  7 °C 30.2in /  1023.0hPa Calm     93% 0in /  0.0mm 0 W/m2
01:04 46.4 °F /  8 °C 44.4 °F /  6.9 °C 30.2in /  1023.4hPa Calm     93% 0in /  0.0mm 0 W/m2
01:09 46.4 °F /  8 °C 44.4 °F /  6.9 °C 30.2in /  1023.0hPa Calm     93% 0in /  0.0mm 0 W/m2
01:14 46.2 °F /  7.9 °C 44.6 °F /  7 °C 30.2in /  1023.4hPa Calm     94% 0in /  0.0mm 0 W/m2
01:19 46.2 °F /  7.9 °C 44.2 °F /  6.8 °C 30.2in /  1023.4hPa Calm     93% 0in /  0.0mm 0 W/m2
01:24 46.2 °F /  7.9 °C 44.2 °F /  6.8 °C 30.2in /  1023.4hPa Calm     93% 0in /  0.0mm 0 W/m2
01:29 46.2 °F /  7.9 °C 44.6 °F /  7 °C 30.2in /  1023.4hPa Calm     94% 0in /  0.0mm 0 W/m2
01:34 46 °F /  7.8 °C 44.4 °F /  6.9 °C 30.2in /  1023.4hPa Calm     94% 0in /  0.0mm 0 W/m2
01:39 46.2 °F /  7.9 °C 44.6 °F /  7 °C 30.2in /  1023.4hPa Calm     94% 0in /  0.0mm 0 W/m2
01:44 46.2 °F /  7.9 °C 44.6 °F /  7 °C 30.2in /  1023.4hPa Calm     94% 0in /  0.0mm 0 W/m2
01:49 46.2 °F /  7.9 °C 44.6 °F /  7 °C 30.2in /  1023.4hPa Calm     94% 0in /  0.0mm 0 W/m2
01:54 46.2 °F /  7.9 °C 44.6 °F /  7 °C 30.2in /  1023.4hPa Calm     94% 0in /  0.0mm 0 W/m2
01:59 46 °F /  7.8 °C 44.4 °F /  6.9 °C 30.2in /  1023.4hPa Calm     94% 0in /  0.0mm 0 W/m2
02:04 46 °F /  7.8 °C 44.4 °F /  6.9 °C 30.2in /  1023.4hPa Calm     94% 0in /  0.0mm 0 W/m2
02:09 46 °F /  7.8 °C 44.4 °F /  6.9 °C 30.2in /  1023.4hPa Calm     94% 0in /  0.0mm 0 W/m2
02:14 46 °F /  7.8 °C 44.4 °F /  6.9 °C 30.2in /  1023.4hPa Calm     94% 0in /  0.0mm 0 W/m2
02:19 46 °F /  7.8 °C 44.4 °F /  6.9 °C 30.2in /  1023.0hPa Calm     94% 0in /  0.0mm 0 W/m2
02:24 46 °F /  7.8 °C 44.4 °F /  6.9 °C 30.2in /  1023.0hPa Calm     94% 0in /  0.0mm 0 W/m2
02:29 46 °F /  7.8 °C 44.4 °F /  6.9 °C 30.2in /  1023.0hPa Calm     94% 0in /  0.0mm 0 W/m2
02:35 46 °F /  7.8 °C 44.4 °F /  6.9 °C 30.2in /  1023.0hPa Calm     94% 0in /  0.0mm 0 W/m2
02:40 46 °F /  7.8 °C 44.4 °F /  6.9 °C 30.2in /  1023.0hPa Calm     94% 0in /  0.0mm 0 W/m2
02:45 46 °F /  7.8 °C 44.4 °F /  6.9 °C 30.2in /  1023.0hPa Calm     94% 0in /  0.0mm 0 W/m2
02:50 45.9 °F /  7.7 °C 44.2 °F /  6.8 °C 30.2in /  1023.0hPa Calm     94% 0in /  0.0mm 0 W/m2
02:55 45.9 °F /  7.7 °C 44.2 °F /  6.8 °C 30.2in /  1023.0hPa Calm     94% 0in /  0.0mm 0 W/m2
03:00 45.9 °F /  7.7 °C 44.2 °F /  6.8 °C 30.2in /  1023.0hPa Calm     94% 0in /  0.0mm 0 W/m2
03:05 45.9 °F /  7.7 °C 44.2 °F /  6.8 °C 30.2in /  1023.0hPa Calm     94% 0in /  0.0mm 0 W/m2
03:10 45.9 °F /  7.7 °C 44.2 °F /  6.8 °C 30.2in /  1023.0hPa Calm     94% 0in /  0.0mm 0 W/m2
03:15 45.9 °F /  7.7 °C 44.2 °F /  6.8 °C 30.2in /  1023.0hPa Calm     94% 0in /  0.0mm 0 W/m2
03:20 45.9 °F /  7.7 °C 44.2 °F /  6.8 °C 30.2in /  1023.0hPa Calm     94% 0in /  0.0mm 0 W/m2
03:25 45.9 °F /  7.7 °C 44.2 °F /  6.8 °C 30.2in /  1023.0hPa Calm     94% 0in /  0.0mm 0 W/m2
03:30 45.9 °F /  7.7 °C 44.2 °F /  6.8 °C 30.2in /  1023.0hPa Calm     94% 0in /  0.0mm 0 W/m2
03:35 45.9 °F /  7.7 °C 44.2 °F /  6.8 °C 30.2in /  1023.0hPa Calm   2mph /  3.2km/h 94% 0in /  0.0mm 0 W/m2
03:40 45.9 °F /  7.7 °C 44.2 °F /  6.8 °C 30.2in /  1023.0hPa Calm     94% 0in /  0.0mm 0 W/m2
03:45 45.9 °F /  7.7 °C 44.4 °F /  6.9 °C 30.2in /  1023.0hPa Calm   2mph /  3.2km/h 95% 0in /  0.0mm 0 W/m2
03:50 45.9 °F /  7.7 °C 44.4 °F /  6.9 °C 30.2in /  1023.0hPa Calm     95% 0in /  0.0mm 0 W/m2
03:55 45.9 °F /  7.7 °C 44.4 °F /  6.9 °C 30.2in /  1023.0hPa Calm     95% 0in /  0.0mm 0 W/m2
04:00 45.9 °F /  7.7 °C 44.4 °F /  6.9 °C 30.2in /  1023.0hPa Calm     95% 0in /  0.0mm 0 W/m2
04:05 45.9 °F /  7.7 °C 44.4 °F /  6.9 °C 30.2in /  1023.0hPa Calm     95% 0in /  0.0mm 0 W/m2
04:10 45.9 °F /  7.7 °C 44.4 °F /  6.9 °C 30.2in /  1022.7hPa Calm     95% 0in /  0.0mm 0 W/m2
04:15 45.9 °F /  7.7 °C 44.4 °F /  6.9 °C 30.2in /  1022.7hPa Calm     95% 0in /  0.0mm 0 W/m2
04:20 45.9 °F /  7.7 °C 44.4 °F /  6.9 °C 30.2in /  1022.7hPa Calm     95% 0in /  0.0mm 0 W/m2
04:25 45.9 °F /  7.7 °C 44.4 °F /  6.9 °C 30.2in /  1022.7hPa Calm     95% 0in /  0.0mm 0 W/m2
04:30 45.9 °F /  7.7 °C 44.4 °F /  6.9 °C 30.2in /  1022.7hPa Calm     95% 0in /  0.0mm 0 W/m2
04:35 45.9 °F /  7.7 °C 44.4 °F /  6.9 °C 30.2in /  1022.7hPa Calm     95% 0in /  0.0mm 0 W/m2
04:40 45.9 °F /  7.7 °C 44.4 °F /  6.9 °C 30.2in /  1022.7hPa Calm     95% 0in /  0.0mm 0 W/m2
04:46 45.9 °F /  7.7 °C 44.4 °F /  6.9 °C 30.2in /  1022.7hPa Calm     95% 0in /  0.0mm 0 W/m2
04:51 45.9 °F /  7.7 °C 44.4 °F /  6.9 °C 30.2in /  1022.7hPa Calm     95% 0in /  0.0mm 0 W/m2
04:56 45.9 °F /  7.7 °C 44.4 °F /  6.9 °C 30.2in /  1022.4hPa Calm     95% 0in /  0.0mm 0 W/m2
05:01 45.9 °F /  7.7 °C 44.4 °F /  6.9 °C 30.2in /  1022.4hPa Calm     95% 0in /  0.0mm 0 W/m2
05:06 45.9 °F /  7.7 °C 44.4 °F /  6.9 °C 30.2in /  1022.4hPa Calm     95% 0in /  0.0mm 0 W/m2
05:11 45.9 °F /  7.7 °C 44.4 °F /  6.9 °C 30.2in /  1022.4hPa Calm     95% 0in /  0.0mm 0 W/m2
05:16 45.9 °F /  7.7 °C 44.4 °F /  6.9 °C 30.2in /  1022.4hPa Calm     95% 0in /  0.0mm 0 W/m2
05:21 45.9 °F /  7.7 °C 44.4 °F /  6.9 °C 30.2in /  1022.4hPa Calm     95% 0in /  0.0mm 0 W/m2
05:26 45.9 °F /  7.7 °C 44.4 °F /  6.9 °C 30.2in /  1022.4hPa Calm     95% 0in /  0.0mm 0 W/m2
05:31 45.7 °F /  7.6 °C 44.4 °F /  6.9 °C 30.2in /  1022.4hPa Calm     95% 0in /  0.0mm 0 W/m2
05:36 45.7 °F /  7.6 °C 44.4 °F /  6.9 °C 30.2in /  1022.4hPa Calm     95% 0in /  0.0mm 0 W/m2
05:41 45.7 °F /  7.6 °C 44.4 °F /  6.9 °C 30.2in /  1022.4hPa Calm     95% 0in /  0.0mm 0 W/m2
05:46 45.7 °F /  7.6 °C 44.4 °F /  6.9 °C 30.2in /  1022.4hPa Calm     95% 0in /  0.0mm 0 W/m2
05:51 45.7 °F /  7.6 °C 44.4 °F /  6.9 °C 30.2in /  1022.4hPa Calm     95% 0in /  0.0mm 0 W/m2
05:56 45.7 °F /  7.6 °C 44.4 °F /  6.9 °C 30.2in /  1022.4hPa Calm     95% 0in /  0.0mm 0 W/m2
06:01 45.5 °F /  7.5 °C 44.2 °F /  6.8 °C 30.2in /  1022.4hPa Calm     95% 0in /  0.0mm 0 W/m2
06:06 45.5 °F /  7.5 °C 44.2 °F /  6.8 °C 30.2in /  1022.4hPa Calm     95% 0in /  0.0mm 0 W/m2
06:11 45.3 °F /  7.4 °C 44.1 °F /  6.7 °C 30.2in /  1022.4hPa Calm     95% 0in /  0.0mm 0 W/m2
06:16 45.3 °F /  7.4 °C 44.1 °F /  6.7 °C 30.2in /  1022.4hPa Calm     95% 0in /  0.0mm 0 W/m2
06:21 45.3 °F /  7.4 °C 44.1 °F /  6.7 °C 30.2in /  1022.4hPa Calm     95% 0in /  0.0mm 0 W/m2
06:26 45.3 °F /  7.4 °C 44.1 °F /  6.7 °C 30.2in /  1022.4hPa Calm     95% 0in /  0.0mm 0 W/m2
06:31 45.1 °F /  7.3 °C 43.9 °F /  6.6 °C 30.2in /  1022.4hPa Calm     95% 0in /  0.0mm 0 W/m2
06:36 45.1 °F /  7.3 °C 43.9 °F /  6.6 °C 30.2in /  1022.4hPa Calm     95% 0in /  0.0mm 0 W/m2
06:41 45.1 °F /  7.3 °C 43.9 °F /  6.6 °C 30.2in /  1022.4hPa Calm     95% 0in /  0.0mm 0 W/m2
06:46 45.1 °F /  7.3 °C 43.9 °F /  6.6 °C 30.2in /  1022.4hPa Calm     95% 0in /  0.0mm 0 W/m2
06:51 45.1 °F /  7.3 °C 43.9 °F /  6.6 °C 30.2in /  1022.4hPa Calm     95% 0in /  0.0mm 0 W/m2
06:56 45.1 °F /  7.3 °C 43.9 °F /  6.6 °C 30.2in /  1022.4hPa Calm     95% 0in /  0.0mm 0 W/m2
07:02 45.1 °F /  7.3 °C 43.9 °F /  6.6 °C 30.2in /  1022.4hPa Calm     95% 0in /  0.0mm 0 W/m2
07:07 45 °F /  7.2 °C 43.7 °F /  6.5 °C 30.2in /  1022.4hPa Calm     95% 0in /  0.0mm 0 W/m2
07:12 45 °F /  7.2 °C 43.7 °F /  6.5 °C 30.2in /  1022.4hPa Calm     95% 0in /  0.0mm 0 W/m2
07:17 45 °F /  7.2 °C 43.7 °F /  6.5 °C 30.2in /  1022.4hPa Calm     95% 0in /  0.0mm 0 W/m2
07:22 45 °F /  7.2 °C 43.7 °F /  6.5 °C 30.2in /  1022.4hPa Calm     95% 0in /  0.0mm 0 W/m2
07:27 44.8 °F /  7.1 °C 43.5 °F /  6.4 °C 30.2in /  1022.0hPa Calm     95% 0in /  0.0mm 0 W/m2
07:37 44.8 °F /  7.1 °C 43.5 °F /  6.4 °C 30.2in /  1022.0hPa Calm     95% 0in /  0.0mm 0 W/m2
07:42 44.4 °F /  6.9 °C 43.2 °F /  6.2 °C 30.2in /  1022.0hPa Calm     95% 0in /  0.0mm 0 W/m2
07:47 44.4 °F /  6.9 °C 43.2 °F /  6.2 °C 30.2in /  1022.0hPa Calm     95% 0in /  0.0mm 0 W/m2
07:52 44.2 °F /  6.8 °C 43 °F /  6.1 °C 30.2in /  1022.0hPa Calm     95% 0in /  0.0mm 0 W/m2
07:57 44.2 °F /  6.8 °C 43 °F /  6.1 °C 30.2in /  1021.7hPa Calm     95% 0in /  0.0mm 5 W/m2
08:02 44.1 °F /  6.7 °C 42.8 °F /  6 °C 30.2in /  1022.0hPa Calm     95% 0in /  0.0mm 5 W/m2
08:07 43.9 °F /  6.6 °C 42.6 °F /  5.9 °C 30.2in /  1022.0hPa Calm     95% 0in /  0.0mm 7 W/m2
08:12 43.7 °F /  6.5 °C 42.4 °F /  5.8 °C 30.2in /  1022.0hPa Calm     95% 0in /  0.0mm 9 W/m2
08:17 43.5 °F /  6.4 °C 42.3 °F /  5.7 °C 30.2in /  1022.0hPa Calm     95% 0in /  0.0mm 12 W/m2
08:22 43.3 °F /  6.3 °C 42.1 °F /  5.6 °C 30.2in /  1022.0hPa Calm     95% 0in /  0.0mm 16 W/m2
08:27 43.3 °F /  6.3 °C 42.1 °F /  5.6 °C 30.2in /  1022.0hPa Calm     95% 0in /  0.0mm 23 W/m2
08:32 43.3 °F /  6.3 °C 42.1 °F /  5.6 °C 30.2in /  1022.0hPa Calm     95% 0in /  0.0mm 30 W/m2
08:37 43.2 °F /  6.2 °C 41.9 °F /  5.5 °C 30.2in /  1022.0hPa Calm     95% 0in /  0.0mm 46 W/m2
08:42 43.3 °F /  6.3 °C 42.1 °F /  5.6 °C 30.2in /  1022.0hPa Calm     95% 0in /  0.0mm 51 W/m2
08:47 43.3 °F /  6.3 °C 42.1 °F /  5.6 °C 30.2in /  1022.4hPa Calm     95% 0in /  0.0mm 49 W/m2
08:52 43.5 °F /  6.4 °C 42.4 °F /  5.8 °C 30.2in /  1022.4hPa Calm     96% 0in /  0.0mm 49 W/m2
08:57 43.7 °F /  6.5 °C 42.6 °F /  5.9 °C 30.2in /  1022.4hPa Calm     96% 0in /  0.0mm 63 W/m2
09:02 43.9 °F /  6.6 °C 42.8 °F /  6 °C 30.2in /  1022.4hPa Calm     96% 0in /  0.0mm 58 W/m2
09:07 44.1 °F /  6.7 °C 43 °F /  6.1 °C 30.2in /  1022.4hPa Calm     96% 0in /  0.0mm 51 W/m2
09:12 44.2 °F /  6.8 °C 43.2 °F /  6.2 °C 30.2in /  1022.4hPa Calm     96% 0in /  0.0mm 54 W/m2
09:17 44.4 °F /  6.9 °C 43.3 °F /  6.3 °C 30.2in /  1022.4hPa Calm     96% 0in /  0.0mm 62 W/m2
09:22 44.6 °F /  7 °C 43.5 °F /  6.4 °C 30.2in /  1022.4hPa Calm     96% 0in /  0.0mm 77 W/m2
09:27 45 °F /  7.2 °C 43.9 °F /  6.6 °C 30.2in /  1022.4hPa Calm     96% 0in /  0.0mm 83 W/m2
09:32 45.1 °F /  7.3 °C 44.1 °F /  6.7 °C 30.2in /  1022.4hPa Calm     96% 0in /  0.0mm 91 W/m2
09:37 45.1 °F /  7.3 °C 44.1 °F /  6.7 °C 30.2in /  1022.4hPa Calm     96% 0in /  0.0mm 88 W/m2
09:42 45.3 °F /  7.4 °C 44.2 °F /  6.8 °C 30.2in /  1022.7hPa Calm     96% 0in /  0.0mm 81 W/m2
09:47 45.7 °F /  7.6 °C 44.6 °F /  7 °C 30.2in /  1022.7hPa Calm   1mph /  1.6km/h 96% 0in /  0.0mm 118 W/m2
09:52 45.7 °F /  7.6 °C 44.6 °F /  7 °C 30.2in /  1022.4hPa Calm   2mph /  3.2km/h 96% 0in /  0.0mm 148 W/m2
09:57 45.9 °F /  7.7 °C 44.8 °F /  7.1 °C 30.2in /  1022.7hPa NE 0.9mph /  1.4km/h 1mph /  1.6km/h 96% 0in /  0.0mm 151 W/m2
10:02 46 °F /  7.8 °C 45 °F /  7.2 °C 30.2in /  1022.7hPa NE 0.9mph /  1.4km/h 2mph /  3.2km/h 96% 0in /  0.0mm 134 W/m2
10:07 46 °F /  7.8 °C 45 °F /  7.2 °C 30.2in /  1022.7hPa NE 0.9mph /  1.4km/h 2mph /  3.2km/h 96% 0in /  0.0mm 109 W/m2
10:12 46 °F /  7.8 °C 45 °F /  7.2 °C 30.2in /  1022.7hPa NE 0.9mph /  1.4km/h 2mph /  3.2km/h 96% 0in /  0.0mm 107 W/m2
10:17 46 °F /  7.8 °C 45 °F /  7.2 °C 30.2in /  1022.7hPa Calm   1mph /  1.6km/h 96% 0in /  0.0mm 93 W/m2
10:22 46 °F /  7.8 °C 45 °F /  7.2 °C 30.2in /  1022.7hPa NE 0.9mph /  1.4km/h 2mph /  3.2km/h 96% 0in /  0.0mm 104 W/m2
10:27 46.2 °F /  7.9 °C 45.1 °F /  7.3 °C 30.2in /  1022.7hPa Calm   2mph /  3.2km/h 96% 0in /  0.0mm 120 W/m2
10:32 46.2 °F /  7.9 °C 45.1 °F /  7.3 °C 30.2in /  1022.7hPa NE 0.9mph /  1.4km/h 1mph /  1.6km/h 96% 0in /  0.0mm 93 W/m2
10:37 46.4 °F /  8 °C 45.3 °F /  7.4 °C 30.2in /  1022.4hPa NE 2mph /  3.2km/h 2mph /  3.2km/h 96% 0in /  0.0mm 123 W/m2
10:42 46.6 °F /  8.1 °C 45.5 °F /  7.5 °C 30.2in /  1022.4hPa NE 0.9mph /  1.4km/h 2mph /  3.2km/h 96% 0in /  0.0mm 109 W/m2
10:47 46.8 °F /  8.2 °C 45.7 °F /  7.6 °C 30.2in /  1022.4hPa ENE 2mph /  3.2km/h 3mph /  4.8km/h 96% 0in /  0.0mm 114 W/m2
10:52 46.9 °F /  8.3 °C 45.9 °F /  7.7 °C 30.2in /  1022.4hPa ENE 0.9mph /  1.4km/h 2mph /  3.2km/h 96% 0in /  0.0mm 279 W/m2
10:57 47.1 °F /  8.4 °C 46 °F /  7.8 °C 30.2in /  1022.4hPa NE 0.9mph /  1.4km/h 2mph /  3.2km/h 96% 0in /  0.0mm 128 W/m2
11:02 47.1 °F /  8.4 °C 45.7 °F /  7.6 °C 30.2in /  1022.4hPa NNE 0.9mph /  1.4km/h 1mph /  1.6km/h 95% 0in /  0.0mm 118 W/m2
11:07 47.3 °F /  8.5 °C 45.9 °F /  7.7 °C 30.2in /  1022.4hPa Calm     95% 0in /  0.0mm 111 W/m2
11:12 47.5 °F /  8.6 °C 46 °F /  7.8 °C 30.2in /  1022.4hPa Calm     95% 0in /  0.0mm 123 W/m2
11:17 47.7 °F /  8.7 °C 46.2 °F /  7.9 °C 30.2in /  1022.7hPa Calm   2mph /  3.2km/h 95% 0in /  0.0mm 135 W/m2
11:22 48 °F /  8.9 °C 46.6 °F /  8.1 °C 30.2in /  1022.7hPa Calm   3mph /  4.8km/h 95% 0in /  0.0mm 118 W/m2
11:27 48.6 °F /  9.2 °C 47.1 °F /  8.4 °C 30.2in /  1022.7hPa East 0.9mph /  1.4km/h 2mph /  3.2km/h 95% 0in /  0.0mm 125 W/m2
11:32 48.9 °F /  9.4 °C 47.5 °F /  8.6 °C 30.2in /  1022.7hPa ENE 0.9mph /  1.4km/h 3mph /  4.8km/h 95% 0in /  0.0mm 213 W/m2
11:37 49.5 °F /  9.7 °C 47.8 °F /  8.8 °C 30.2in /  1022.7hPa Calm     94% 0in /  0.0mm 436 W/m2
11:42 49.8 °F /  9.9 °C 47.8 °F /  8.8 °C 30.2in /  1022.7hPa Calm     93% 0in /  0.0mm 374 W/m2
11:48 50.4 °F /  10.2 °C 48.2 °F /  9 °C 30.2in /  1022.4hPa SW 0.9mph /  1.4km/h 2mph /  3.2km/h 92% 0in /  0.0mm 118 W/m2
11:53 50.4 °F /  10.2 °C 47.8 °F /  8.8 °C 30.2in /  1022.4hPa Calm   2mph /  3.2km/h 91% 0in /  0.0mm 158 W/m2
11:58 50.7 °F /  10.4 °C 48.2 °F /  9 °C 30.2in /  1022.4hPa Calm     91% 0in /  0.0mm 123 W/m2
12:03 50.9 °F /  10.5 °C 48 °F /  8.9 °C 30.2in /  1022.0hPa Calm   3mph /  4.8km/h 90% 0in /  0.0mm 121 W/m2
12:08 51.1 °F /  10.6 °C 48 °F /  8.9 °C 30.2in /  1022.0hPa Calm   2mph /  3.2km/h 89% 0in /  0.0mm 93 W/m2
12:13 51.3 °F /  10.7 °C 47.8 °F /  8.8 °C 30.2in /  1022.0hPa East 0.9mph /  1.4km/h 2mph /  3.2km/h 88% 0in /  0.0mm 113 W/m2
12:18 51.4 °F /  10.8 °C 48 °F /  8.9 °C 30.2in /  1022.0hPa Calm   1mph /  1.6km/h 88% 0in /  0.0mm 114 W/m2
12:23 51.6 °F /  10.9 °C 47.8 °F /  8.8 °C 30.2in /  1022.0hPa Calm     87% 0in /  0.0mm 125 W/m2
12:28 51.6 °F /  10.9 °C 47.8 °F /  8.8 °C 30.2in /  1022.0hPa WNW 0.9mph /  1.4km/h 3mph /  4.8km/h 87% 0in /  0.0mm 120 W/m2
12:33 52 °F /  11.1 °C 48.2 °F /  9 °C 30.2in /  1022.0hPa NW 0.9mph /  1.4km/h 1mph /  1.6km/h 87% 0in /  0.0mm 234 W/m2
12:38 52.3 °F /  11.3 °C 48.2 °F /  9 °C 30.2in /  1022.0hPa West 2mph /  3.2km/h 3mph /  4.8km/h 86% 0in /  0.0mm 206 W/m2
12:43 52.3 °F /  11.3 °C 47.7 °F /  8.7 °C 30.2in /  1022.0hPa West 0.9mph /  1.4km/h 2mph /  3.2km/h 84% 0in /  0.0mm 142 W/m2
12:48 52.5 °F /  11.4 °C 47.8 °F /  8.8 °C 30.2in /  1021.7hPa North 3mph /  4.8km/h 3mph /  4.8km/h 84% 0in /  0.0mm 118 W/m2
12:53 52.9 °F /  11.6 °C 48.2 °F /  9 °C 30.2in /  1021.7hPa Calm   2mph /  3.2km/h 84% 0in /  0.0mm 531 W/m2
12:58 53.4 °F /  11.9 °C 48 °F /  8.9 °C 30.2in /  1021.3hPa Calm   4mph /  6.4km/h 82% 0in /  0.0mm 522 W/m2
13:03 54.1 °F /  12.3 °C 47.5 °F /  8.6 °C 30.2in /  1021.3hPa East 2.9mph /  4.7km/h 6mph /  9.7km/h 78% 0in /  0.0mm 229 W/m2
13:08 54.3 °F /  12.4 °C 48 °F /  8.9 °C 30.2in /  1021.3hPa ENE 2mph /  3.2km/h 5mph /  8km/h 79% 0in /  0.0mm 127 W/m2
13:13 54.7 °F /  12.6 °C 48.4 °F /  9.1 °C 30.2in /  1021.0hPa East 0.9mph /  1.4km/h 5mph /  8km/h 79% 0in /  0.0mm 160 W/m2
13:18 54.9 °F /  12.7 °C 47.8 °F /  8.8 °C 30.2in /  1021.0hPa ESE 0.9mph /  1.4km/h 3mph /  4.8km/h 77% 0in /  0.0mm 313 W/m2
13:23 54.9 °F /  12.7 °C 47.5 °F /  8.6 °C 30.2in /  1021.0hPa East 0.9mph /  1.4km/h 3mph /  4.8km/h 76% 0in /  0.0mm 109 W/m2
13:28 54.9 °F /  12.7 °C 46 °F /  7.8 °C 30.2in /  1021.0hPa SSE 2mph /  3.2km/h 3mph /  4.8km/h 72% 0in /  0.0mm 116 W/m2
13:33 55 °F /  12.8 °C 46.2 °F /  7.9 °C 30.2in /  1021.0hPa NE 2mph /  3.2km/h 3mph /  4.8km/h 72% 0in /  0.0mm 213 W/m2
13:38 55 °F /  12.8 °C 45.5 °F /  7.5 °C 30.2in /  1021.0hPa Calm   3mph /  4.8km/h 70% 0in /  0.0mm 70 W/m2
13:43 55 °F /  12.8 °C 45.9 °F /  7.7 °C 30.2in /  1021.0hPa ESE 0.9mph /  1.4km/h 3mph /  4.8km/h 71% 0in /  0.0mm 91 W/m2
13:48 55 °F /  12.8 °C 45.5 °F /  7.5 °C 30.2in /  1021.0hPa East 0.9mph /  1.4km/h 7mph /  11.3km/h 70% 0in /  0.0mm 72 W/m2
13:53 55 °F /  12.8 °C 45.1 °F /  7.3 °C 30.1in /  1020.7hPa SSE 0.9mph /  1.4km/h 1mph /  1.6km/h 69% 0in /  0.0mm 93 W/m2
13:58 55 °F /  12.8 °C 44.6 °F /  7 °C 30.1in /  1020.7hPa ESE 4mph /  6.4km/h 7mph /  11.3km/h 68% 0in /  0.0mm 83 W/m2
14:03 55 °F /  12.8 °C 44.2 °F /  6.8 °C 30.1in /  1020.7hPa ESE 2mph /  3.2km/h 3mph /  4.8km/h 67% 0in /  0.0mm 84 W/m2
14:08 55.2 °F /  12.9 °C 44.8 °F /  7.1 °C 30.1in /  1020.7hPa SSE 0.9mph /  1.4km/h 5mph /  8km/h 68% 0in /  0.0mm 139 W/m2
14:13 55.6 °F /  13.1 °C 44.4 °F /  6.9 °C 30.1in /  1020.7hPa ENE 0.9mph /  1.4km/h 4mph /  6.4km/h 66% 0in /  0.0mm 167 W/m2
14:18 55.8 °F /  13.2 °C 43.7 °F /  6.5 °C 30.1in /  1020.7hPa ENE 4mph /  6.4km/h 7mph /  11.3km/h 64% 0in /  0.0mm 190 W/m2
14:23 55.9 °F /  13.3 °C 43.2 °F /  6.2 °C 30.1in /  1020.3hPa NNE 2.9mph /  4.7km/h 4mph /  6.4km/h 62% 0in /  0.0mm 169 W/m2
14:28 56.1 °F /  13.4 °C 42.8 °F /  6 °C 30.1in /  1020.3hPa ENE 2mph /  3.2km/h 5mph /  8km/h 61% 0in /  0.0mm 144 W/m2
14:33 56.1 °F /  13.4 °C 43.7 °F /  6.5 °C 30.1in /  1020.3hPa Calm   3mph /  4.8km/h 63% 0in /  0.0mm 141 W/m2
14:38 56.1 °F /  13.4 °C 43.3 °F /  6.3 °C 30.1in /  1020.3hPa ENE 0.9mph /  1.4km/h 2mph /  3.2km/h 62% 0in /  0.0mm 155 W/m2
14:43 55.9 °F /  13.3 °C 42.6 °F /  5.9 °C 30.1in /  1020.3hPa East 0.9mph /  1.4km/h 4mph /  6.4km/h 61% 0in /  0.0mm 160 W/m2
14:48 55.9 °F /  13.3 °C 43.9 °F /  6.6 °C 30.1in /  1020.3hPa East 0.9mph /  1.4km/h 3mph /  4.8km/h 64% 0in /  0.0mm 155 W/m2
14:53 55.8 °F /  13.2 °C 42.1 °F /  5.6 °C 30.1in /  1020.3hPa Calm   2mph /  3.2km/h 60% 0in /  0.0mm 162 W/m2
14:58 55.8 °F /  13.2 °C 43.3 °F /  6.3 °C 30.1in /  1020.0hPa East 2mph /  3.2km/h 4mph /  6.4km/h 63% 0in /  0.0mm 165 W/m2
15:03 55.8 °F /  13.2 °C 43.3 °F /  6.3 °C 30.1in /  1020.3hPa ENE 2mph /  3.2km/h 3mph /  4.8km/h 63% 0in /  0.0mm 165 W/m2
15:08 55.8 °F /  13.2 °C 43.3 °F /  6.3 °C 30.1in /  1020.3hPa East 2mph /  3.2km/h 4mph /  6.4km/h 63% 0in /  0.0mm 149 W/m2
15:13 55.6 °F /  13.1 °C 43.2 °F /  6.2 °C 30.1in /  1020.0hPa East 2mph /  3.2km/h 4mph /  6.4km/h 63% 0in /  0.0mm 155 W/m2
15:18 55.6 °F /  13.1 °C 43.2 °F /  6.2 °C 30.1in /  1020.0hPa ENE 0.9mph /  1.4km/h 3mph /  4.8km/h 63% 0in /  0.0mm 151 W/m2
15:23 55.6 °F /  13.1 °C 42.3 °F /  5.7 °C 30.1in /  1020.0hPa SE 0.9mph /  1.4km/h 2mph /  3.2km/h 61% 0in /  0.0mm 151 W/m2
15:28 55.6 °F /  13.1 °C 42.8 °F /  6 °C 30.1in /  1019.6hPa East 0.9mph /  1.4km/h 2mph /  3.2km/h 62% 0in /  0.0mm 151 W/m2
15:33 55.8 °F /  13.2 °C 43 °F /  6.1 °C 30.1in /  1019.3hPa ENE 0.9mph /  1.4km/h 3mph /  4.8km/h 62% 0in /  0.0mm 195 W/m2
15:38 56.1 °F /  13.4 °C 43.3 °F /  6.3 °C 30.1in /  1019.3hPa NNE 2.9mph /  4.7km/h 3mph /  4.8km/h 62% 0in /  0.0mm 211 W/m2
15:43 56.7 °F /  13.7 °C 44.2 °F /  6.8 °C 30.1in /  1019.3hPa Calm   3mph /  4.8km/h 63% 0in /  0.0mm 200 W/m2
15:48 56.8 °F /  13.8 °C 43.9 °F /  6.6 °C 30.1in /  1019.3hPa East 0.9mph /  1.4km/h 2mph /  3.2km/h 62% 0in /  0.0mm 214 W/m2
15:53 56.8 °F /  13.8 °C 43.5 °F /  6.4 °C 30.1in /  1019.3hPa NE 2mph /  3.2km/h 2mph /  3.2km/h 61% 0in /  0.0mm 162 W/m2
15:58 56.8 °F /  13.8 °C 43.2 °F /  6.2 °C 30.1in /  1019.3hPa ENE 2mph /  3.2km/h 5mph /  8km/h 60% 0in /  0.0mm 127 W/m2
16:03 56.7 °F /  13.7 °C 43.3 °F /  6.3 °C 30.1in /  1019.3hPa Calm   6mph /  9.7km/h 61% 0in /  0.0mm 77 W/m2
16:08 56.5 °F /  13.6 °C 42.8 °F /  6 °C 30.1in /  1019.0hPa ESE 0.9mph /  1.4km/h 4mph /  6.4km/h 60% 0in /  0.0mm 84 W/m2
16:13 56.1 °F /  13.4 °C 43.3 °F /  6.3 °C 30.1in /  1019.0hPa Calm   5mph /  8km/h 62% 0in /  0.0mm 81 W/m2
16:18 55.8 °F /  13.2 °C 42.1 °F /  5.6 °C 30.1in /  1019.3hPa Calm   2mph /  3.2km/h 60% 0in /  0.0mm 70 W/m2
16:23 55.8 °F /  13.2 °C 43.3 °F /  6.3 °C 30.1in /  1019.3hPa ESE 2mph /  3.2km/h 4mph /  6.4km/h 63% 0in /  0.0mm 65 W/m2
16:28 55.4 °F /  13 °C 43 °F /  6.1 °C 30.1in /  1019.3hPa Calm   1mph /  1.6km/h 63% 0in /  0.0mm 76 W/m2
16:33 55.2 °F /  12.9 °C 43.7 °F /  6.5 °C 30.1in /  1019.0hPa ESE 2.9mph /  4.7km/h 3mph /  4.8km/h 65% 0in /  0.0mm 91 W/m2
16:38 55 °F /  12.8 °C 42.6 °F /  5.9 °C 30.1in /  1019.0hPa East 4mph /  6.4km/h 7mph /  11.3km/h 63% 0in /  0.0mm 93 W/m2
16:43 54.9 °F /  12.7 °C 42.4 °F /  5.8 °C 30.1in /  1019.0hPa Calm   2mph /  3.2km/h 63% 0in /  0.0mm 97 W/m2
16:48 54.9 °F /  12.7 °C 42.4 °F /  5.8 °C 30.1in /  1019.0hPa Calm   6mph /  9.7km/h 63% 0in /  0.0mm 105 W/m2
16:53 54.7 °F /  12.6 °C 42.8 °F /  6 °C 30.1in /  1019.0hPa East 0.9mph /  1.4km/h 3mph /  4.8km/h 64% 0in /  0.0mm 104 W/m2
16:58 54.7 °F /  12.6 °C 43.9 °F /  6.6 °C 30.1in /  1019.0hPa Calm   1mph /  1.6km/h 67% 0in /  0.0mm 123 W/m2
17:03 54.7 °F /  12.6 °C 43.5 °F /  6.4 °C 30.1in /  1019.0hPa Calm   3mph /  4.8km/h 66% 0in /  0.0mm 91 W/m2
17:08 54.5 °F /  12.5 °C 43.3 °F /  6.3 °C 30.1in /  1018.6hPa Calm   1mph /  1.6km/h 66% 0in /  0.0mm 81 W/m2
17:13 54.3 °F /  12.4 °C 43.5 °F /  6.4 °C 30.1in /  1018.6hPa Calm   3mph /  4.8km/h 67% 0in /  0.0mm 81 W/m2
17:18 54.3 °F /  12.4 °C 43.5 °F /  6.4 °C 30.1in /  1018.6hPa Calm   2mph /  3.2km/h 67% 0in /  0.0mm 86 W/m2
17:23 54.1 °F /  12.3 °C 43 °F /  6.1 °C 30.1in /  1018.3hPa Calm   3mph /  4.8km/h 66% 0in /  0.0mm 88 W/m2
17:28 54.1 °F /  12.3 °C 43.9 °F /  6.6 °C 30.1in /  1018.3hPa Calm   1mph /  1.6km/h 68% 0in /  0.0mm 74 W/m2
17:33 54.1 °F /  12.3 °C 43 °F /  6.1 °C 30.1in /  1018.3hPa ENE 0.9mph /  1.4km/h 4mph /  6.4km/h 66% 0in /  0.0mm 65 W/m2
17:38 54.1 °F /  12.3 °C 43 °F /  6.1 °C 30.1in /  1018.0hPa Calm   1mph /  1.6km/h 66% 0in /  0.0mm 54 W/m2
17:43 54 °F /  12.2 °C 42.4 °F /  5.8 °C 30.1in /  1018.0hPa Calm   4mph /  6.4km/h 65% 0in /  0.0mm 49 W/m2
17:48 53.8 °F /  12.1 °C 43.2 °F /  6.2 °C 30.1in /  1018.0hPa Calm   1mph /  1.6km/h 67% 0in /  0.0mm 46 W/m2
17:53 53.4 °F /  11.9 °C 42.8 °F /  6 °C 30.1in /  1018.3hPa SE 0.9mph /  1.4km/h 1mph /  1.6km/h 67% 0in /  0.0mm 42 W/m2
17:58 53.2 °F /  11.8 °C 43 °F /  6.1 °C 30.1in /  1018.3hPa SE 0.9mph /  1.4km/h 1mph /  1.6km/h 68% 0in /  0.0mm 37 W/m2
18:03 52.9 °F /  11.6 °C 43.3 °F /  6.3 °C 30.1in /  1018.0hPa Calm     70% 0in /  0.0mm 32 W/m2
18:08 52.5 °F /  11.4 °C 43.3 °F /  6.3 °C 30.1in /  1018.3hPa Calm   2mph /  3.2km/h 71% 0in /  0.0mm 26 W/m2
18:13 52.2 °F /  11.2 °C 43.3 °F /  6.3 °C 30.1in /  1018.3hPa Calm     72% 0in /  0.0mm 21 W/m2
18:18 51.6 °F /  10.9 °C 43.3 °F /  6.3 °C 30.1in /  1018.3hPa Calm   2mph /  3.2km/h 73% 0in /  0.0mm 18 W/m2
18:23 51.3 °F /  10.7 °C 43.3 °F /  6.3 °C 30.1in /  1018.3hPa Calm   1mph /  1.6km/h 74% 0in /  0.0mm 11 W/m2
18:28 50.7 °F /  10.4 °C 43.2 °F /  6.2 °C 30.1in /  1018.3hPa Calm     75% 0in /  0.0mm 7 W/m2
18:33 50.4 °F /  10.2 °C 42.8 °F /  6 °C 30.1in /  1018.0hPa Calm     75% 0in /  0.0mm 0 W/m2
18:38 49.8 °F /  9.9 °C 42.6 °F /  5.9 °C 30.1in /  1018.0hPa Calm     76% 0in /  0.0mm 0 W/m2
18:43 49.5 °F /  9.7 °C 42.8 °F /  6 °C 30.1in /  1018.0hPa Calm   1mph /  1.6km/h 78% 0in /  0.0mm 0 W/m2
18:48 48.9 °F /  9.4 °C 42.4 °F /  5.8 °C 30.1in /  1018.0hPa Calm     78% 0in /  0.0mm 0 W/m2
18:53 48.7 °F /  9.3 °C 42.4 °F /  5.8 °C 30.1in /  1018.0hPa Calm   1mph /  1.6km/h 79% 0in /  0.0mm 0 W/m2
18:58 48.4 °F /  9.1 °C 42.4 °F /  5.8 °C 30.1in /  1018.0hPa SE 0.9mph /  1.4km/h 2mph /  3.2km/h 80% 0in /  0.0mm 0 W/m2
19:03 48 °F /  8.9 °C 42.1 °F /  5.6 °C 30.1in /  1018.0hPa Calm     80% 0in /  0.0mm 0 W/m2
19:08 47.8 °F /  8.8 °C 42.3 °F /  5.7 °C 30.1in /  1018.0hPa Calm     81% 0in /  0.0mm 0 W/m2
19:13 47.7 °F /  8.7 °C 42.4 °F /  5.8 °C 30.1in /  1018.0hPa Calm     82% 0in /  0.0mm 0 W/m2
19:18 47.5 °F /  8.6 °C 42.3 °F /  5.7 °C 30.1in /  1017.6hPa Calm     82% 0in /  0.0mm 0 W/m2
19:23 47.1 °F /  8.4 °C 41.9 °F /  5.5 °C 30.1in /  1017.6hPa Calm     82% 0in /  0.0mm 0 W/m2
19:28 46.9 °F /  8.3 °C 42.1 °F /  5.6 °C 30.1in /  1017.6hPa Calm   1mph /  1.6km/h 83% 0in /  0.0mm 0 W/m2
19:33 46.8 °F /  8.2 °C 41.9 °F /  5.5 °C 30.1in /  1018.0hPa Calm   1mph /  1.6km/h 83% 0in /  0.0mm 0 W/m2
19:38 46.6 °F /  8.1 °C 42.1 °F /  5.6 °C 30.1in /  1018.0hPa Calm     84% 0in /  0.0mm 0 W/m2
19:43 46.4 °F /  8 °C 42.1 °F /  5.6 °C 30.1in /  1018.0hPa SE 0.9mph /  1.4km/h 1mph /  1.6km/h 85% 0in /  0.0mm 0 W/m2
19:48 46.2 °F /  7.9 °C 41.9 °F /  5.5 °C 30.1in /  1017.6hPa Calm   1mph /  1.6km/h 85% 0in /  0.0mm 0 W/m2
19:53 46 °F /  7.8 °C 41.7 °F /  5.4 °C 30.1in /  1017.6hPa Calm     85% 0in /  0.0mm 0 W/m2
19:58 46 °F /  7.8 °C 42.1 °F /  5.6 °C 30.1in /  1017.6hPa Calm   1mph /  1.6km/h 86% 0in /  0.0mm 0 W/m2
20:03 45.9 °F /  7.7 °C 41.9 °F /  5.5 °C 30.1in /  1017.6hPa SE 0.9mph /  1.4km/h 1mph /  1.6km/h 86% 0in /  0.0mm 0 W/m2
20:08 45.7 °F /  7.6 °C 41.7 °F /  5.4 °C 30.1in /  1018.0hPa SE 0.9mph /  1.4km/h 1mph /  1.6km/h 86% 0in /  0.0mm 0 W/m2
20:13 45.7 °F /  7.6 °C 42.1 °F /  5.6 °C 30.1in /  1017.6hPa Calm   1mph /  1.6km/h 87% 0in /  0.0mm 0 W/m2
20:18 45.3 °F /  7.4 °C 41.7 °F /  5.4 °C 30.1in /  1017.6hPa Calm     87% 0in /  0.0mm 0 W/m2
20:23 45.3 °F /  7.4 °C 41.7 °F /  5.4 °C 30.1in /  1017.6hPa Calm   1mph /  1.6km/h 87% 0in /  0.0mm 0 W/m2
20:28 45.1 °F /  7.3 °C 41.5 °F /  5.3 °C 30.1in /  1017.6hPa Calm     87% 0in /  0.0mm 0 W/m2
20:33 45 °F /  7.2 °C 41.4 °F /  5.2 °C 30.1in /  1017.6hPa Calm     87% 0in /  0.0mm 0 W/m2
20:38 44.8 °F /  7.1 °C 41.2 °F /  5.1 °C 30.1in /  1017.6hPa Calm     87% 0in /  0.0mm 0 W/m2
20:43 44.4 °F /  6.9 °C 40.8 °F /  4.9 °C 30.1in /  1017.6hPa Calm     87% 0in /  0.0mm 0 W/m2
20:48 44.2 °F /  6.8 °C 41 °F /  5 °C 30in /  1017.3hPa Calm     88% 0in /  0.0mm 0 W/m2
20:53 44.2 °F /  6.8 °C 41 °F /  5 °C 30in /  1017.3hPa Calm     88% 0in /  0.0mm 0 W/m2
20:58 44.1 °F /  6.7 °C 40.8 °F /  4.9 °C 30in /  1017.3hPa Calm     88% 0in /  0.0mm 0 W/m2
21:03 44.1 °F /  6.7 °C 41 °F /  5 °C 30in /  1017.3hPa Calm   1mph /  1.6km/h 89% 0in /  0.0mm 0 W/m2
21:08 43.9 °F /  6.6 °C 40.8 °F /  4.9 °C 30in /  1016.9hPa Calm   1mph /  1.6km/h 89% 0in /  0.0mm 0 W/m2
21:13 43.9 °F /  6.6 °C 40.8 °F /  4.9 °C 30in /  1016.9hPa Calm     89% 0in /  0.0mm 0 W/m2
21:18 43.7 °F /  6.5 °C 40.6 °F /  4.8 °C 30in /  1016.9hPa Calm   1mph /  1.6km/h 89% 0in /  0.0mm 0 W/m2
21:23 43.7 °F /  6.5 °C 41 °F /  5 °C 30in /  1016.9hPa Calm     90% 0in /  0.0mm 0 W/m2
21:28 43.5 °F /  6.4 °C 40.8 °F /  4.9 °C 30in /  1016.9hPa Calm     90% 0in /  0.0mm 0 W/m2
21:33 43.5 °F /  6.4 °C 40.8 °F /  4.9 °C 30in /  1016.9hPa Calm     90% 0in /  0.0mm 0 W/m2
21:38 43.5 °F /  6.4 °C 40.8 °F /  4.9 °C 30in /  1016.6hPa Calm     90% 0in /  0.0mm 0 W/m2
21:43 43.3 °F /  6.3 °C 40.6 °F /  4.8 °C 30in /  1016.6hPa Calm     90% 0in /  0.0mm 0 W/m2
21:48 43.3 °F /  6.3 °C 40.6 °F /  4.8 °C 30in /  1016.6hPa Calm     90% 0in /  0.0mm 0 W/m2
21:53 43.3 °F /  6.3 °C 40.6 °F /  4.8 °C 30in /  1016.6hPa Calm     90% 0in /  0.0mm 0 W/m2
21:58 43.3 °F /  6.3 °C 40.8 °F /  4.9 °C 30in /  1016.6hPa Calm     91% 0in /  0.0mm 0 W/m2
22:03 43.3 °F /  6.3 °C 40.8 °F /  4.9 °C 30in /  1016.9hPa Calm     91% 0in /  0.0mm 0 W/m2
22:09 43.3 °F /  6.3 °C 40.8 °F /  4.9 °C 30in /  1016.9hPa Calm     91% 0in /  0.0mm 0 W/m2
22:14 43.3 °F /  6.3 °C 40.8 °F /  4.9 °C 30in /  1016.6hPa Calm     91% 0in /  0.0mm 0 W/m2
22:19 43.2 °F /  6.2 °C 40.6 °F /  4.8 °C 30in /  1016.6hPa Calm     91% 0in /  0.0mm 0 W/m2
22:24 43.2 °F /  6.2 °C 40.6 °F /  4.8 °C 30in /  1016.6hPa Calm     91% 0in /  0.0mm 0 W/m2
22:29 43.2 °F /  6.2 °C 40.6 °F /  4.8 °C 30in /  1016.6hPa Calm     91% 0in /  0.0mm 0 W/m2
22:34 43 °F /  6.1 °C 40.5 °F /  4.7 °C 30in /  1016.6hPa Calm     91% 0in /  0.0mm 0 W/m2
22:39 43 °F /  6.1 °C 40.5 °F /  4.7 °C 30in /  1016.6hPa Calm     91% 0in /  0.0mm 0 W/m2
22:44 43 °F /  6.1 °C 40.5 °F /  4.7 °C 30in /  1016.6hPa Calm     91% 0in /  0.0mm 0 W/m2
22:49 43 °F /  6.1 °C 40.5 °F /  4.7 °C 30in /  1016.3hPa Calm     91% 0in /  0.0mm 0 W/m2
22:54 42.8 °F /  6 °C 40.3 °F /  4.6 °C 30in /  1016.3hPa Calm     91% 0in /  0.0mm 0 W/m2
22:59 42.6 °F /  5.9 °C 40.1 °F /  4.5 °C 30in /  1016.3hPa Calm     91% 0in /  0.0mm 0 W/m2
23:04 42.4 °F /  5.8 °C 39.9 °F /  4.4 °C 30in /  1016.3hPa Calm     91% 0in /  0.0mm 0 W/m2
23:09 42.4 °F /  5.8 °C 39.9 °F /  4.4 °C 30in /  1015.9hPa Calm     91% 0in /  0.0mm 0 W/m2
23:14 42.3 °F /  5.7 °C 39.7 °F /  4.3 °C 30in /  1015.9hPa Calm     91% 0in /  0.0mm 0 W/m2
Juneau County Weather
Compliments of Weather Underground - 4 mb